sensor_id;sensor_type;location;lat;lon;timestamp;temperature;humidity
35127;DHT22;21300;52.006;5.798;2022-07-23T00:01:22;19.40;69.90
35127;DHT22;21300;52.006;5.798;2022-07-23T00:03:48;19.30;69.90
35127;DHT22;21300;52.006;5.798;2022-07-23T00:06:14;19.30;70.10
35127;DHT22;21300;52.006;5.798;2022-07-23T00:08:39;19.30;70.10
35127;DHT22;21300;52.006;5.798;2022-07-23T00:11:05;19.30;70.20
35127;DHT22;21300;52.006;5.798;2022-07-23T00:13:33;19.30;70.30
35127;DHT22;21300;52.006;5.798;2022-07-23T00:15:59;19.30;70.40
35127;DHT22;21300;52.006;5.798;2022-07-23T00:18:25;19.20;70.40
35127;DHT22;21300;52.006;5.798;2022-07-23T00:20:51;19.20;70.50
35127;DHT22;21300;52.006;5.798;2022-07-23T00:23:16;19.20;70.60
35127;DHT22;21300;52.006;5.798;2022-07-23T00:25:48;19.20;70.60
35127;DHT22;21300;52.006;5.798;2022-07-23T00:28:14;19.10;70.60
35127;DHT22;21300;52.006;5.798;2022-07-23T00:30:40;19.10;70.70
35127;DHT22;21300;52.006;5.798;2022-07-23T00:33:07;19.10;70.80
35127;DHT22;21300;52.006;5.798;2022-07-23T00:35:36;19.10;70.90
35127;DHT22;21300;52.006;5.798;2022-07-23T00:38:03;19.10;71.00
35127;DHT22;21300;52.006;5.798;2022-07-23T00:40:30;19.10;71.10
35127;DHT22;21300;52.006;5.798;2022-07-23T00:42:58;19.00;71.00
35127;DHT22;21300;52.006;5.798;2022-07-23T00:45:25;19.00;71.10
35127;DHT22;21300;52.006;5.798;2022-07-23T00:47:50;19.00;71.20
35127;DHT22;21300;52.006;5.798;2022-07-23T00:50:16;19.00;71.20
35127;DHT22;21300;52.006;5.798;2022-07-23T00:52:42;19.00;71.30
35127;DHT22;21300;52.006;5.798;2022-07-23T00:55:09;18.90;71.20
35127;DHT22;21300;52.006;5.798;2022-07-23T00:57:36;18.90;71.30
35127;DHT22;21300;52.006;5.798;2022-07-23T01:00:04;18.90;71.30
35127;DHT22;21300;52.006;5.798;2022-07-23T01:02:30;18.90;71.40
35127;DHT22;21300;52.006;5.798;2022-07-23T01:04:56;18.80;71.40
35127;DHT22;21300;52.006;5.798;2022-07-23T01:07:22;18.80;71.50
35127;DHT22;21300;52.006;5.798;2022-07-23T01:09:49;18.80;71.60
35127;DHT22;21300;52.006;5.798;2022-07-23T01:12:15;18.80;71.60
35127;DHT22;21300;52.006;5.798;2022-07-23T01:14:40;18.70;71.50
35127;DHT22;21300;52.006;5.798;2022-07-23T01:17:06;18.70;71.60
35127;DHT22;21300;52.006;5.798;2022-07-23T01:19:32;18.70;71.70
35127;DHT22;21300;52.006;5.798;2022-07-23T01:22:00;18.70;71.70
35127;DHT22;21300;52.006;5.798;2022-07-23T01:24:26;18.70;71.80
35127;DHT22;21300;52.006;5.798;2022-07-23T01:26:53;18.60;71.80
35127;DHT22;21300;52.006;5.798;2022-07-23T01:29:18;18.60;71.80
35127;DHT22;21300;52.006;5.798;2022-07-23T01:31:47;18.60;71.80
35127;DHT22;21300;52.006;5.798;2022-07-23T01:34:13;18.60;71.80
35127;DHT22;21300;52.006;5.798;2022-07-23T01:36:39;18.50;71.90
35127;DHT22;21300;52.006;5.798;2022-07-23T01:39:06;18.50;71.90
35127;DHT22;21300;52.006;5.798;2022-07-23T01:41:33;18.50;72.00
35127;DHT22;21300;52.006;5.798;2022-07-23T01:43:59;18.50;72.00
35127;DHT22;21300;52.006;5.798;2022-07-23T01:46:24;18.50;72.00
35127;DHT22;21300;52.006;5.798;2022-07-23T01:48:50;18.50;72.10
35127;DHT22;21300;52.006;5.798;2022-07-23T01:51:15;18.40;72.10
35127;DHT22;21300;52.006;5.798;2022-07-23T01:53:41;18.40;72.10
35127;DHT22;21300;52.006;5.798;2022-07-23T01:56:07;18.40;72.20
35127;DHT22;21300;52.006;5.798;2022-07-23T01:58:33;18.40;73.00
35127;DHT22;21300;52.006;5.798;2022-07-23T02:00:58;18.30;72.10
35127;DHT22;21300;52.006;5.798;2022-07-23T02:03:25;18.30;72.10
35127;DHT22;21300;52.006;5.798;2022-07-23T02:05:50;18.30;72.20
35127;DHT22;21300;52.006;5.798;2022-07-23T02:08:16;18.30;72.20
35127;DHT22;21300;52.006;5.798;2022-07-23T02:10:42;18.30;72.30
35127;DHT22;21300;52.006;5.798;2022-07-23T02:13:08;18.30;72.30
35127;DHT22;21300;52.006;5.798;2022-07-23T02:15:34;18.20;72.30
35127;DHT22;21300;52.006;5.798;2022-07-23T02:17:59;18.20;72.40
35127;DHT22;21300;52.006;5.798;2022-07-23T02:20:25;18.20;72.40
35127;DHT22;21300;52.006;5.798;2022-07-23T02:22:51;18.20;72.40
35127;DHT22;21300;52.006;5.798;2022-07-23T02:25:17;18.20;72.50
35127;DHT22;21300;52.006;5.798;2022-07-23T02:27:42;18.10;72.40
35127;DHT22;21300;52.006;5.798;2022-07-23T02:30:08;18.20;72.50
35127;DHT22;21300;52.006;5.798;2022-07-23T02:32:35;18.10;72.40
35127;DHT22;21300;52.006;5.798;2022-07-23T02:35:01;18.10;72.50
35127;DHT22;21300;52.006;5.798;2022-07-23T02:37:26;18.10;72.50
35127;DHT22;21300;52.006;5.798;2022-07-23T02:39:52;18.00;72.40
35127;DHT22;21300;52.006;5.798;2022-07-23T02:42:18;18.00;72.50
35127;DHT22;21300;52.006;5.798;2022-07-23T02:44:44;18.00;72.60
35127;DHT22;21300;52.006;5.798;2022-07-23T02:47:09;18.00;72.60
35127;DHT22;21300;52.006;5.798;2022-07-23T02:49:35;18.00;72.60
35127;DHT22;21300;52.006;5.798;2022-07-23T02:52:01;18.00;72.70
35127;DHT22;21300;52.006;5.798;2022-07-23T02:54:30;18.00;72.70
35127;DHT22;21300;52.006;5.798;2022-07-23T02:56:56;17.90;72.70
35127;DHT22;21300;52.006;5.798;2022-07-23T02:59:21;17.90;72.70
35127;DHT22;21300;52.006;5.798;2022-07-23T03:01:50;17.90;72.80
35127;DHT22;21300;52.006;5.798;2022-07-23T03:04:16;17.90;72.70
35127;DHT22;21300;52.006;5.798;2022-07-23T03:06:41;17.80;72.70
35127;DHT22;21300;52.006;5.798;2022-07-23T03:09:07;17.80;72.80
35127;DHT22;21300;52.006;5.798;2022-07-23T03:11:32;17.80;72.70
35127;DHT22;21300;52.006;5.798;2022-07-23T03:13:58;17.80;72.80
35127;DHT22;21300;52.006;5.798;2022-07-23T03:16:23;17.70;72.80
35127;DHT22;21300;52.006;5.798;2022-07-23T03:18:49;17.70;72.80
35127;DHT22;21300;52.006;5.798;2022-07-23T03:21:15;17.70;72.90
35127;DHT22;21300;52.006;5.798;2022-07-23T03:23:40;17.70;72.80
35127;DHT22;21300;52.006;5.798;2022-07-23T03:26:06;17.70;73.00
35127;DHT22;21300;52.006;5.798;2022-07-23T03:28:32;17.60;72.90
35127;DHT22;21300;52.006;5.798;2022-07-23T03:30:58;17.60;72.90
35127;DHT22;21300;52.006;5.798;2022-07-23T03:33:23;17.60;73.00
35127;DHT22;21300;52.006;5.798;2022-07-23T03:35:49;17.60;73.00
35127;DHT22;21300;52.006;5.798;2022-07-23T03:38:15;17.60;73.00
35127;DHT22;21300;52.006;5.798;2022-07-23T03:40:41;17.50;73.00
35127;DHT22;21300;52.006;5.798;2022-07-23T03:43:07;17.50;73.00
35127;DHT22;21300;52.006;5.798;2022-07-23T03:45:35;17.50;73.00
35127;DHT22;21300;52.006;5.798;2022-07-23T03:48:01;17.50;73.10
35127;DHT22;21300;52.006;5.798;2022-07-23T03:50:27;17.50;73.20
35127;DHT22;21300;52.006;5.798;2022-07-23T03:52:53;17.50;73.10
35127;DHT22;21300;52.006;5.798;2022-07-23T03:55:19;17.50;73.10
35127;DHT22;21300;52.006;5.798;2022-07-23T03:57:45;17.40;73.10
35127;DHT22;21300;52.006;5.798;2022-07-23T04:00:11;17.40;73.10
35127;DHT22;21300;52.006;5.798;2022-07-23T04:02:38;17.40;73.10
35127;DHT22;21300;52.006;5.798;2022-07-23T04:05:05;17.40;73.10
35127;DHT22;21300;52.006;5.798;2022-07-23T04:07:31;17.40;73.10
35127;DHT22;21300;52.006;5.798;2022-07-23T04:09:56;17.30;73.10
35127;DHT22;21300;52.006;5.798;2022-07-23T04:12:22;17.30;73.10
35127;DHT22;21300;52.006;5.798;2022-07-23T04:14:48;17.10;72.10
35127;DHT22;21300;52.006;5.798;2022-07-23T04:17:19;16.90;71.50
35127;DHT22;21300;52.006;5.798;2022-07-23T04:19:48;16.70;71.30
35127;DHT22;21300;52.006;5.798;2022-07-23T04:22:13;16.50;71.60
35127;DHT22;21300;52.006;5.798;2022-07-23T04:24:39;16.40;71.60
35127;DHT22;21300;52.006;5.798;2022-07-23T04:27:05;16.30;71.80
35127;DHT22;21300;52.006;5.798;2022-07-23T04:29:30;16.10;72.10
35127;DHT22;21300;52.006;5.798;2022-07-23T04:31:56;16.10;72.40
35127;DHT22;21300;52.006;5.798;2022-07-23T04:34:21;16.00;72.70
35127;DHT22;21300;52.006;5.798;2022-07-23T04:36:48;15.90;73.00
35127;DHT22;21300;52.006;5.798;2022-07-23T04:39:14;15.90;73.40
35127;DHT22;21300;52.006;5.798;2022-07-23T04:41:39;15.90;73.50
35127;DHT22;21300;52.006;5.798;2022-07-23T04:44:05;15.90;73.60
35127;DHT22;21300;52.006;5.798;2022-07-23T04:46:31;15.90;73.50
35127;DHT22;21300;52.006;5.798;2022-07-23T04:48:57;15.90;73.40
35127;DHT22;21300;52.006;5.798;2022-07-23T04:51:25;15.80;73.90
35127;DHT22;21300;52.006;5.798;2022-07-23T04:53:51;15.80;73.60
35127;DHT22;21300;52.006;5.798;2022-07-23T04:56:16;15.80;73.70
35127;DHT22;21300;52.006;5.798;2022-07-23T04:58:42;15.80;73.70
35127;DHT22;21300;52.006;5.798;2022-07-23T05:01:07;15.80;73.60
35127;DHT22;21300;52.006;5.798;2022-07-23T05:03:33;15.80;74.10
35127;DHT22;21300;52.006;5.798;2022-07-23T05:05:59;15.80;74.20
35127;DHT22;21300;52.006;5.798;2022-07-23T05:08:25;15.80;74.30
35127;DHT22;21300;52.006;5.798;2022-07-23T05:10:50;15.80;74.70
35127;DHT22;21300;52.006;5.798;2022-07-23T05:13:16;15.80;75.10
35127;DHT22;21300;52.006;5.798;2022-07-23T05:15:43;15.80;75.70
35127;DHT22;21300;52.006;5.798;2022-07-23T05:18:08;15.90;75.70
35127;DHT22;21300;52.006;5.798;2022-07-23T05:20:34;15.80;75.90
35127;DHT22;21300;52.006;5.798;2022-07-23T05:22:59;15.80;76.20
35127;DHT22;21300;52.006;5.798;2022-07-23T05:25:25;15.90;76.90
35127;DHT22;21300;52.006;5.798;2022-07-23T05:27:51;15.90;76.70
35127;DHT22;21300;52.006;5.798;2022-07-23T05:30:16;15.90;77.20
35127;DHT22;21300;52.006;5.798;2022-07-23T05:32:42;15.90;78.30
35127;DHT22;21300;52.006;5.798;2022-07-23T05:35:11;15.90;77.90
35127;DHT22;21300;52.006;5.798;2022-07-23T05:37:37;16.00;77.90
35127;DHT22;21300;52.006;5.798;2022-07-23T05:40:05;16.00;78.40
35127;DHT22;21300;52.006;5.798;2022-07-23T05:42:36;16.00;78.30
35127;DHT22;21300;52.006;5.798;2022-07-23T05:45:05;16.10;78.90
35127;DHT22;21300;52.006;5.798;2022-07-23T05:47:42;16.10;78.60
35127;DHT22;21300;52.006;5.798;2022-07-23T05:50:07;16.10;78.80
35127;DHT22;21300;52.006;5.798;2022-07-23T05:52:34;16.20;79.10
35127;DHT22;21300;52.006;5.798;2022-07-23T05:54:59;16.20;79.20
35127;DHT22;21300;52.006;5.798;2022-07-23T05:57:25;16.30;79.00
35127;DHT22;21300;52.006;5.798;2022-07-23T05:59:50;16.40;79.30
35127;DHT22;21300;52.006;5.798;2022-07-23T06:02:16;16.50;80.20
35127;DHT22;21300;52.006;5.798;2022-07-23T06:04:42;16.50;79.80
35127;DHT22;21300;52.006;5.798;2022-07-23T06:07:07;16.40;81.10
35127;DHT22;21300;52.006;5.798;2022-07-23T06:09:33;16.40;80.90
35127;DHT22;21300;52.006;5.798;2022-07-23T06:11:58;16.60;80.90
35127;DHT22;21300;52.006;5.798;2022-07-23T06:14:24;16.60;79.80
35127;DHT22;21300;52.006;5.798;2022-07-23T06:16:49;16.70;80.40
35127;DHT22;21300;52.006;5.798;2022-07-23T06:19:15;16.80;80.50
35127;DHT22;21300;52.006;5.798;2022-07-23T06:21:41;16.80;80.90
35127;DHT22;21300;52.006;5.798;2022-07-23T06:24:06;16.90;80.20
35127;DHT22;21300;52.006;5.798;2022-07-23T06:26:32;16.90;80.30
35127;DHT22;21300;52.006;5.798;2022-07-23T06:28:58;17.00;79.40
35127;DHT22;21300;52.006;5.798;2022-07-23T06:31:23;17.10;79.00
35127;DHT22;21300;52.006;5.798;2022-07-23T06:33:51;17.10;78.60
35127;DHT22;21300;52.006;5.798;2022-07-23T06:36:20;17.20;78.30
35127;DHT22;21300;52.006;5.798;2022-07-23T06:38:45;17.30;78.30
35127;DHT22;21300;52.006;5.798;2022-07-23T06:41:11;17.40;78.30
35127;DHT22;21300;52.006;5.798;2022-07-23T06:43:37;17.40;77.70
35127;DHT22;21300;52.006;5.798;2022-07-23T06:46:02;17.40;77.30
35127;DHT22;21300;52.006;5.798;2022-07-23T06:48:28;17.50;77.20
35127;DHT22;21300;52.006;5.798;2022-07-23T06:50:54;17.60;77.10
35127;DHT22;21300;52.006;5.798;2022-07-23T06:53:20;17.60;76.80
35127;DHT22;21300;52.006;5.798;2022-07-23T06:55:46;17.60;76.40
35127;DHT22;21300;52.006;5.798;2022-07-23T06:58:12;17.70;76.20
35127;DHT22;21300;52.006;5.798;2022-07-23T07:00:39;17.70;75.80
35127;DHT22;21300;52.006;5.798;2022-07-23T07:03:07;17.80;75.60
35127;DHT22;21300;52.006;5.798;2022-07-23T07:05:35;17.90;75.40
35127;DHT22;21300;52.006;5.798;2022-07-23T07:08:01;17.90;75.20
35127;DHT22;21300;52.006;5.798;2022-07-23T07:10:26;17.90;75.00
35127;DHT22;21300;52.006;5.798;2022-07-23T07:12:55;17.90;74.70
35127;DHT22;21300;52.006;5.798;2022-07-23T07:15:21;18.00;74.60
35127;DHT22;21300;52.006;5.798;2022-07-23T07:17:46;18.00;74.20
35127;DHT22;21300;52.006;5.798;2022-07-23T07:20:12;18.10;74.30
35127;DHT22;21300;52.006;5.798;2022-07-23T07:22:38;18.10;74.00
35127;DHT22;21300;52.006;5.798;2022-07-23T07:25:04;18.10;73.80
35127;DHT22;21300;52.006;5.798;2022-07-23T07:27:30;18.20;73.70
35127;DHT22;21300;52.006;5.798;2022-07-23T07:29:56;18.20;73.80
35127;DHT22;21300;52.006;5.798;2022-07-23T07:32:21;18.30;73.40
35127;DHT22;21300;52.006;5.798;2022-07-23T07:34:47;18.30;73.50
35127;DHT22;21300;52.006;5.798;2022-07-23T07:37:13;18.30;73.40
35127;DHT22;21300;52.006;5.798;2022-07-23T07:39:38;18.30;73.10
35127;DHT22;21300;52.006;5.798;2022-07-23T07:42:04;18.40;73.60
35127;DHT22;21300;52.006;5.798;2022-07-23T07:44:30;18.40;73.00
35127;DHT22;21300;52.006;5.798;2022-07-23T07:46:56;18.50;73.20
35127;DHT22;21300;52.006;5.798;2022-07-23T07:49:25;18.50;73.00
35127;DHT22;21300;52.006;5.798;2022-07-23T07:51:50;18.50;73.00
35127;DHT22;21300;52.006;5.798;2022-07-23T07:54:16;18.60;72.80
35127;DHT22;21300;52.006;5.798;2022-07-23T07:56:41;18.50;72.60
35127;DHT22;21300;52.006;5.798;2022-07-23T07:59:07;18.60;72.70
35127;DHT22;21300;52.006;5.798;2022-07-23T08:01:33;18.70;72.70
35127;DHT22;21300;52.006;5.798;2022-07-23T08:03:58;18.70;72.60
35127;DHT22;21300;52.006;5.798;2022-07-23T08:06:24;18.70;72.40
35127;DHT22;21300;52.006;5.798;2022-07-23T08:08:50;18.80;72.50
35127;DHT22;21300;52.006;5.798;2022-07-23T08:11:16;18.80;72.50
35127;DHT22;21300;52.006;5.798;2022-07-23T08:13:41;18.90;72.40
35127;DHT22;21300;52.006;5.798;2022-07-23T08:16:10;18.90;72.20
35127;DHT22;21300;52.006;5.798;2022-07-23T08:18:35;18.90;72.10
35127;DHT22;21300;52.006;5.798;2022-07-23T08:21:01;19.00;72.20
35127;DHT22;21300;52.006;5.798;2022-07-23T08:23:27;19.00;72.60
35127;DHT22;21300;52.006;5.798;2022-07-23T08:25:53;19.10;72.50
35127;DHT22;21300;52.006;5.798;2022-07-23T08:28:18;19.00;72.40
35127;DHT22;21300;52.006;5.798;2022-07-23T08:30:44;19.10;72.30
35127;DHT22;21300;52.006;5.798;2022-07-23T08:33:16;19.10;72.30
35127;DHT22;21300;52.006;5.798;2022-07-23T08:35:47;19.20;72.20
35127;DHT22;21300;52.006;5.798;2022-07-23T08:38:17;19.20;72.30
35127;DHT22;21300;52.006;5.798;2022-07-23T08:40:46;19.20;72.30
35127;DHT22;21300;52.006;5.798;2022-07-23T08:43:14;19.30;73.00
35127;DHT22;21300;52.006;5.798;2022-07-23T08:45:43;19.30;72.20
35127;DHT22;21300;52.006;5.798;2022-07-23T08:48:18;19.30;72.20
35127;DHT22;21300;52.006;5.798;2022-07-23T08:50:48;19.30;72.20
35127;DHT22;21300;52.006;5.798;2022-07-23T08:53:15;19.30;72.20
35127;DHT22;21300;52.006;5.798;2022-07-23T08:55:44;19.30;72.10
35127;DHT22;21300;52.006;5.798;2022-07-23T08:58:10;19.40;72.20
35127;DHT22;21300;52.006;5.798;2022-07-23T09:00:36;19.40;72.00
35127;DHT22;21300;52.006;5.798;2022-07-23T09:03:02;19.50;72.20
35127;DHT22;21300;52.006;5.798;2022-07-23T09:05:28;19.50;72.20
35127;DHT22;21300;52.006;5.798;2022-07-23T09:08:11;19.50;72.20
35127;DHT22;21300;52.006;5.798;2022-07-23T09:19:01;19.60;71.30
35127;DHT22;21300;52.006;5.798;2022-07-23T09:21:35;19.70;71.60
35127;DHT22;21300;52.006;5.798;2022-07-23T09:24:11;19.70;71.90
35127;DHT22;21300;52.006;5.798;2022-07-23T09:29:25;19.80;71.80
35127;DHT22;21300;52.006;5.798;2022-07-23T09:31:54;19.80;71.80
35127;DHT22;21300;52.006;5.798;2022-07-23T09:34:23;19.80;72.50
35127;DHT22;21300;52.006;5.798;2022-07-23T09:36:52;19.80;71.80
35127;DHT22;21300;52.006;5.798;2022-07-23T09:39:32;19.90;72.10
35127;DHT22;21300;52.006;5.798;2022-07-23T09:42:15;19.90;72.20
35127;DHT22;21300;52.006;5.798;2022-07-23T09:44:41;19.90;72.30
35127;DHT22;21300;52.006;5.798;2022-07-23T09:47:07;20.00;72.30
35127;DHT22;21300;52.006;5.798;2022-07-23T09:49:58;20.00;71.70
35127;DHT22;21300;52.006;5.798;2022-07-23T09:52:31;20.20;70.20
35127;DHT22;21300;52.006;5.798;2022-07-23T09:55:04;20.30;69.80
35127;DHT22;21300;52.006;5.798;2022-07-23T09:57:34;20.30;70.80
35127;DHT22;21300;52.006;5.798;2022-07-23T10:00:05;20.30;70.70
35127;DHT22;21300;52.006;5.798;2022-07-23T10:02:35;20.30;71.20
35127;DHT22;21300;52.006;5.798;2022-07-23T10:05:02;20.30;71.30
35127;DHT22;21300;52.006;5.798;2022-07-23T10:07:32;20.40;71.60
35127;DHT22;21300;52.006;5.798;2022-07-23T10:09:59;20.40;71.20
35127;DHT22;21300;52.006;5.798;2022-07-23T10:12:26;20.40;71.80
35127;DHT22;21300;52.006;5.798;2022-07-23T10:17:36;20.50;72.30
35127;DHT22;21300;52.006;5.798;2022-07-23T10:20:03;20.50;72.00
35127;DHT22;21300;52.006;5.798;2022-07-23T10:22:33;20.60;71.90
35127;DHT22;21300;52.006;5.798;2022-07-23T10:25:32;20.60;72.50
35127;DHT22;21300;52.006;5.798;2022-07-23T10:28:33;20.70;72.70
35127;DHT22;21300;52.006;5.798;2022-07-23T10:31:28;20.70;73.10
35127;DHT22;21300;52.006;5.798;2022-07-23T10:36:40;20.80;73.00
35127;DHT22;21300;52.006;5.798;2022-07-23T10:39:13;20.90;72.90
35127;DHT22;21300;52.006;5.798;2022-07-23T10:41:41;20.90;72.30
35127;DHT22;21300;52.006;5.798;2022-07-23T10:44:18;20.90;69.80
35127;DHT22;21300;52.006;5.798;2022-07-23T10:46:57;21.00;70.40
35127;DHT22;21300;52.006;5.798;2022-07-23T10:49:31;21.00;70.50
35127;DHT22;21300;52.006;5.798;2022-07-23T10:52:16;21.00;70.30
35127;DHT22;21300;52.006;5.798;2022-07-23T10:57:17;21.20;69.90
35127;DHT22;21300;52.006;5.798;2022-07-23T11:02:42;21.40;70.20
35127;DHT22;21300;52.006;5.798;2022-07-23T11:05:14;21.40;70.80
35127;DHT22;21300;52.006;5.798;2022-07-23T11:10:49;21.40;70.90
35127;DHT22;21300;52.006;5.798;2022-07-23T11:24:05;21.80;70.30
35127;DHT22;21300;52.006;5.798;2022-07-23T11:29:37;21.90;70.80
35127;DHT22;21300;52.006;5.798;2022-07-23T11:32:04;21.90;70.80
35127;DHT22;21300;52.006;5.798;2022-07-23T11:34:34;21.90;71.30
35127;DHT22;21300;52.006;5.798;2022-07-23T11:37:02;22.00;68.80
35127;DHT22;21300;52.006;5.798;2022-07-23T11:39:30;22.00;66.30
35127;DHT22;21300;52.006;5.798;2022-07-23T11:41:58;21.90;66.60
35127;DHT22;21300;52.006;5.798;2022-07-23T11:44:28;22.00;68.40
35127;DHT22;21300;52.006;5.798;2022-07-23T11:47:07;22.10;68.30
35127;DHT22;21300;52.006;5.798;2022-07-23T11:49:58;22.00;62.80
35127;DHT22;21300;52.006;5.798;2022-07-23T11:52:25;22.00;64.60
35127;DHT22;21300;52.006;5.798;2022-07-23T11:57:17;22.10;63.90
35127;DHT22;21300;52.006;5.798;2022-07-23T11:59:44;22.10;62.90
35127;DHT22;21300;52.006;5.798;2022-07-23T12:02:11;22.10;62.80
35127;DHT22;21300;52.006;5.798;2022-07-23T12:04:44;22.20;61.90
35127;DHT22;21300;52.006;5.798;2022-07-23T12:07:36;22.30;62.10
35127;DHT22;21300;52.006;5.798;2022-07-23T12:12:50;22.30;63.00
35127;DHT22;21300;52.006;5.798;2022-07-23T12:15:23;22.50;63.30
35127;DHT22;21300;52.006;5.798;2022-07-23T12:17:51;22.50;64.20
35127;DHT22;21300;52.006;5.798;2022-07-23T12:20:24;22.50;64.10
35127;DHT22;21300;52.006;5.798;2022-07-23T12:22:52;22.60;64.10
35127;DHT22;21300;52.006;5.798;2022-07-23T12:25:21;22.60;63.20
35127;DHT22;21300;52.006;5.798;2022-07-23T12:27:58;22.60;60.50
35127;DHT22;21300;52.006;5.798;2022-07-23T12:30:27;22.50;60.90
35127;DHT22;21300;52.006;5.798;2022-07-23T12:32:56;22.50;60.20
35127;DHT22;21300;52.006;5.798;2022-07-23T12:35:29;22.60;61.30
35127;DHT22;21300;52.006;5.798;2022-07-23T12:38:00;22.60;62.10
35127;DHT22;21300;52.006;5.798;2022-07-23T12:40:41;22.60;64.50
35127;DHT22;21300;52.006;5.798;2022-07-23T12:43:10;22.70;64.60
35127;DHT22;21300;52.006;5.798;2022-07-23T12:48:29;22.80;62.70
35127;DHT22;21300;52.006;5.798;2022-07-23T12:51:00;22.90;62.50
35127;DHT22;21300;52.006;5.798;2022-07-23T13:04:06;23.00;63.80
35127;DHT22;21300;52.006;5.798;2022-07-23T13:06:35;23.00;64.70
35127;DHT22;21300;52.006;5.798;2022-07-23T13:09:02;23.10;63.60
35127;DHT22;21300;52.006;5.798;2022-07-23T13:11:28;23.10;64.10
35127;DHT22;21300;52.006;5.798;2022-07-23T13:13:54;23.20;64.00
35127;DHT22;21300;52.006;5.798;2022-07-23T13:16:20;23.20;64.00
35127;DHT22;21300;52.006;5.798;2022-07-23T13:18:45;23.20;62.60
35127;DHT22;21300;52.006;5.798;2022-07-23T13:21:11;23.20;64.40
35127;DHT22;21300;52.006;5.798;2022-07-23T13:23:37;23.20;64.50
35127;DHT22;21300;52.006;5.798;2022-07-23T13:26:03;23.20;65.20
35127;DHT22;21300;52.006;5.798;2022-07-23T13:28:29;23.30;65.50
35127;DHT22;21300;52.006;5.798;2022-07-23T13:30:55;23.30;64.50
35127;DHT22;21300;52.006;5.798;2022-07-23T13:33:23;23.30;65.20
35127;DHT22;21300;52.006;5.798;2022-07-23T13:35:50;23.30;64.80
35127;DHT22;21300;52.006;5.798;2022-07-23T13:38:17;23.30;63.20
35127;DHT22;21300;52.006;5.798;2022-07-23T13:40:45;23.40;64.60
35127;DHT22;21300;52.006;5.798;2022-07-23T13:43:12;23.40;65.60
35127;DHT22;21300;52.006;5.798;2022-07-23T13:45:39;23.40;65.80
35127;DHT22;21300;52.006;5.798;2022-07-23T13:48:06;23.50;65.00
35127;DHT22;21300;52.006;5.798;2022-07-23T13:50:33;23.50;65.50
35127;DHT22;21300;52.006;5.798;2022-07-23T13:53:10;23.50;66.00
35127;DHT22;21300;52.006;5.798;2022-07-23T13:55:38;23.50;66.10
35127;DHT22;21300;52.006;5.798;2022-07-23T13:58:05;23.50;65.10
35127;DHT22;21300;52.006;5.798;2022-07-23T14:00:33;23.50;65.60
35127;DHT22;21300;52.006;5.798;2022-07-23T14:03:00;23.50;65.90
35127;DHT22;21300;52.006;5.798;2022-07-23T14:05:26;23.50;65.90
35127;DHT22;21300;52.006;5.798;2022-07-23T14:07:52;23.60;66.10
35127;DHT22;21300;52.006;5.798;2022-07-23T14:10:21;23.60;66.20
35127;DHT22;21300;52.006;5.798;2022-07-23T14:12:47;23.60;66.20
35127;DHT22;21300;52.006;5.798;2022-07-23T14:15:14;23.60;66.20
35127;DHT22;21300;52.006;5.798;2022-07-23T14:17:43;23.70;66.40
35127;DHT22;21300;52.006;5.798;2022-07-23T14:20:10;23.70;66.30
35127;DHT22;21300;52.006;5.798;2022-07-23T14:22:37;23.70;66.20
35127;DHT22;21300;52.006;5.798;2022-07-23T14:25:05;23.70;66.20
35127;DHT22;21300;52.006;5.798;2022-07-23T14:27:31;23.70;66.20
35127;DHT22;21300;52.006;5.798;2022-07-23T14:29:57;23.70;66.10
35127;DHT22;21300;52.006;5.798;2022-07-23T14:32:23;23.70;66.10
35127;DHT22;21300;52.006;5.798;2022-07-23T14:34:53;23.70;66.10
35127;DHT22;21300;52.006;5.798;2022-07-23T14:37:19;23.80;66.00
35127;DHT22;21300;52.006;5.798;2022-07-23T14:39:45;23.80;66.00
35127;DHT22;21300;52.006;5.798;2022-07-23T14:42:11;23.80;66.00
35127;DHT22;21300;52.006;5.798;2022-07-23T14:44:37;23.80;65.90
35127;DHT22;21300;52.006;5.798;2022-07-23T14:47:04;23.80;65.90
35127;DHT22;21300;52.006;5.798;2022-07-23T14:49:32;23.80;65.80
35127;DHT22;21300;52.006;5.798;2022-07-23T14:51:58;23.80;65.80
35127;DHT22;21300;52.006;5.798;2022-07-23T14:54:24;23.80;65.80
35127;DHT22;21300;52.006;5.798;2022-07-23T14:56:55;23.80;65.80
35127;DHT22;21300;52.006;5.798;2022-07-23T14:59:21;23.90;65.80
35127;DHT22;21300;52.006;5.798;2022-07-23T15:01:47;23.90;65.80
35127;DHT22;21300;52.006;5.798;2022-07-23T15:04:12;23.90;65.80
35127;DHT22;21300;52.006;5.798;2022-07-23T15:06:38;23.90;65.40
35127;DHT22;21300;52.006;5.798;2022-07-23T15:09:04;23.90;64.20
35127;DHT22;21300;52.006;5.798;2022-07-23T15:11:49;23.90;64.10
35127;DHT22;21300;52.006;5.798;2022-07-23T15:14:15;24.00;64.40
35127;DHT22;21300;52.006;5.798;2022-07-23T15:16:40;24.00;64.50
35127;DHT22;21300;52.006;5.798;2022-07-23T15:19:06;24.00;64.50
35127;DHT22;21300;52.006;5.798;2022-07-23T15:21:31;24.00;64.50
35127;DHT22;21300;52.006;5.798;2022-07-23T15:23:58;24.00;64.50
35127;DHT22;21300;52.006;5.798;2022-07-23T15:26:27;24.00;64.80
35127;DHT22;21300;52.006;5.798;2022-07-23T15:28:53;24.00;65.00
35127;DHT22;21300;52.006;5.798;2022-07-23T15:31:22;24.00;65.10
35127;DHT22;21300;52.006;5.798;2022-07-23T15:33:48;24.00;65.10
35127;DHT22;21300;52.006;5.798;2022-07-23T15:36:16;24.10;65.10
35127;DHT22;21300;52.006;5.798;2022-07-23T15:38:42;24.10;65.10
35127;DHT22;21300;52.006;5.798;2022-07-23T15:41:07;24.10;65.00
35127;DHT22;21300;52.006;5.798;2022-07-23T15:43:33;24.10;64.90
35127;DHT22;21300;52.006;5.798;2022-07-23T15:45:58;24.10;64.70
35127;DHT22;21300;52.006;5.798;2022-07-23T15:48:24;24.10;64.70
35127;DHT22;21300;52.006;5.798;2022-07-23T15:50:50;24.10;64.70
35127;DHT22;21300;52.006;5.798;2022-07-23T15:53:16;24.10;64.60
35127;DHT22;21300;52.006;5.798;2022-07-23T15:55:42;24.20;64.60
35127;DHT22;21300;52.006;5.798;2022-07-23T15:58:11;24.20;64.50
35127;DHT22;21300;52.006;5.798;2022-07-23T16:00:55;24.20;64.30
35127;DHT22;21300;52.006;5.798;2022-07-23T16:03:21;24.20;64.30
35127;DHT22;21300;52.006;5.798;2022-07-23T16:05:47;24.20;64.00
35127;DHT22;21300;52.006;5.798;2022-07-23T16:08:12;24.20;63.50
35127;DHT22;21300;52.006;5.798;2022-07-23T16:10:38;24.20;63.20
35127;DHT22;21300;52.006;5.798;2022-07-23T16:13:04;24.20;63.00
35127;DHT22;21300;52.006;5.798;2022-07-23T16:15:29;24.30;63.00
35127;DHT22;21300;52.006;5.798;2022-07-23T16:17:56;24.30;62.80
35127;DHT22;21300;52.006;5.798;2022-07-23T16:20:22;24.30;62.80
35127;DHT22;21300;52.006;5.798;2022-07-23T16:22:47;24.40;63.00
35127;DHT22;21300;52.006;5.798;2022-07-23T16:25:13;24.40;62.80
35127;DHT22;21300;52.006;5.798;2022-07-23T16:27:40;24.40;62.80
35127;DHT22;21300;52.006;5.798;2022-07-23T16:30:07;24.40;62.60